sensor_id;sensor_type;location;lat;lon;timestamp;pressure;altitude;pressure_sealevel;temperature;humidity
59190;BME280;50749;51.636;4.948;2024-03-23T00:54:24;101178.03;;;16.20;57.37
59190;BME280;50749;51.636;4.948;2024-03-23T00:56:50;101177.56;;;16.18;57.38
59190;BME280;50749;51.636;4.948;2024-03-23T00:59:16;101183.41;;;16.16;57.39
59190;BME280;50749;51.636;4.948;2024-03-23T01:01:42;101178.22;;;16.15;57.73
59190;BME280;50749;51.636;4.948;2024-03-23T01:04:09;101186.84;;;16.13;57.48
59190;BME280;50749;51.636;4.948;2024-03-23T01:06:35;101194.66;;;16.11;57.67
59190;BME280;50749;51.636;4.948;2024-03-23T01:09:01;101186.72;;;16.10;57.68
59190;BME280;50749;51.636;4.948;2024-03-23T01:11:30;101179.59;;;16.09;57.62
59190;BME280;50749;51.636;4.948;2024-03-23T01:13:56;101187.38;;;16.07;57.50
59190;BME280;50749;51.636;4.948;2024-03-23T01:16:22;101176.34;;;16.07;57.92
59190;BME280;50749;51.636;4.948;2024-03-23T01:18:48;101183.47;;;16.08;58.14
59190;BME280;50749;51.636;4.948;2024-03-23T01:21:14;101184.28;;;16.08;58.22
59190;BME280;50749;51.636;4.948;2024-03-23T01:23:41;101179.59;;;16.09;58.30
59190;BME280;50749;51.636;4.948;2024-03-23T01:26:07;101181.84;;;16.07;58.05
59190;BME280;50749;51.636;4.948;2024-03-23T01:28:35;101167.47;;;16.01;57.60
59190;BME280;50749;51.636;4.948;2024-03-23T01:31:02;101161.84;;;15.97;57.56
59190;BME280;50749;51.636;4.948;2024-03-23T01:33:28;101144.34;;;15.93;57.43
59190;BME280;50749;51.636;4.948;2024-03-23T01:35:54;101131.25;;;15.90;57.48
59190;BME280;50749;51.636;4.948;2024-03-23T01:38:20;101123.63;;;15.87;57.44
59190;BME280;50749;51.636;4.948;2024-03-23T01:40:46;101120.88;;;15.87;57.51
59190;BME280;50749;51.636;4.948;2024-03-23T01:43:13;101125.91;;;15.85;57.59
59190;BME280;50749;51.636;4.948;2024-03-23T01:45:42;101124.78;;;15.86;57.97
59190;BME280;50749;51.636;4.948;2024-03-23T01:48:08;101121.22;;;15.86;58.02
59190;BME280;50749;51.636;4.948;2024-03-23T01:50:34;101123.84;;;15.82;57.92
59190;BME280;50749;51.636;4.948;2024-03-23T01:53:02;101116.72;;;15.81;57.97
59190;BME280;50749;51.636;4.948;2024-03-23T01:55:28;101115.09;;;15.80;57.68
59190;BME280;50749;51.636;4.948;2024-03-23T01:57:56;101119.00;;;15.79;57.97
59190;BME280;50749;51.636;4.948;2024-03-23T02:00:22;101120.59;;;15.80;58.14
59190;BME280;50749;51.636;4.948;2024-03-23T02:02:51;101111.41;;;15.76;57.97
59190;BME280;50749;51.636;4.948;2024-03-23T02:05:17;101118.00;;;15.75;57.87
59190;BME280;50749;51.636;4.948;2024-03-23T02:07:43;101120.75;;;15.75;58.07
59190;BME280;50749;51.636;4.948;2024-03-23T02:10:10;101116.91;;;15.76;57.71
59190;BME280;50749;51.636;4.948;2024-03-23T02:12:37;101103.75;;;15.73;57.81
59190;BME280;50749;51.636;4.948;2024-03-23T02:15:04;101104.94;;;15.72;57.93
59190;BME280;50749;51.636;4.948;2024-03-23T02:17:31;101101.34;;;15.71;57.76
59190;BME280;50749;51.636;4.948;2024-03-23T02:20:00;101101.69;;;15.70;57.69
59190;BME280;50749;51.636;4.948;2024-03-23T02:22:35;101092.94;;;15.68;57.81
59190;BME280;50749;51.636;4.948;2024-03-23T02:25:04;101099.59;;;15.67;57.69
59190;BME280;50749;51.636;4.948;2024-03-23T02:27:31;101112.91;;;15.65;57.78
59190;BME280;50749;51.636;4.948;2024-03-23T02:29:57;101106.94;;;15.63;57.82
59190;BME280;50749;51.636;4.948;2024-03-23T02:32:23;101114.41;;;15.62;57.91
59190;BME280;50749;51.636;4.948;2024-03-23T02:34:49;101114.72;;;15.60;57.69
59190;BME280;50749;51.636;4.948;2024-03-23T02:37:15;101113.09;;;15.59;57.92
59190;BME280;50749;51.636;4.948;2024-03-23T02:39:41;101115.41;;;15.57;57.57
59190;BME280;50749;51.636;4.948;2024-03-23T02:42:10;101115.72;;;15.56;57.60
59190;BME280;50749;51.636;4.948;2024-03-23T02:44:36;101103.44;;;15.53;57.94
59190;BME280;50749;51.636;4.948;2024-03-23T02:47:03;101105.69;;;15.51;57.40
59190;BME280;50749;51.636;4.948;2024-03-23T02:49:29;101110.41;;;15.51;57.88
59190;BME280;50749;51.636;4.948;2024-03-23T02:51:55;101103.28;;;15.50;57.88
59190;BME280;50749;51.636;4.948;2024-03-23T02:54:21;101099.25;;;15.47;57.84
59190;BME280;50749;51.636;4.948;2024-03-23T02:56:47;101101.56;;;15.45;57.67
59190;BME280;50749;51.636;4.948;2024-03-23T02:59:16;101104.31;;;15.45;57.98
59190;BME280;50749;51.636;4.948;2024-03-23T03:01:42;101101.06;;;15.43;57.73
59190;BME280;50749;51.636;4.948;2024-03-23T03:04:08;101104.63;;;15.44;58.11
59190;BME280;50749;51.636;4.948;2024-03-23T03:06:34;101101.38;;;15.41;57.62
59190;BME280;50749;51.636;4.948;2024-03-23T03:09:00;101096.25;;;15.40;57.87
59190;BME280;50749;51.636;4.948;2024-03-23T03:11:27;101096.91;;;15.37;57.84
59190;BME280;50749;51.636;4.948;2024-03-23T03:13:53;101095.75;;;15.38;58.21
59190;BME280;50749;51.636;4.948;2024-03-23T03:16:22;101100.00;;;15.35;57.92
59190;BME280;50749;51.636;4.948;2024-03-23T03:18:48;101101.94;;;15.35;57.95
59190;BME280;50749;51.636;4.948;2024-03-23T03:21:14;101093.19;;;15.33;58.06
59190;BME280;50749;51.636;4.948;2024-03-23T03:23:40;101090.44;;;15.33;58.10
59190;BME280;50749;51.636;4.948;2024-03-23T03:26:06;101096.59;;;15.30;58.00
59190;BME280;50749;51.636;4.948;2024-03-23T03:28:33;101090.63;;;15.28;57.83
59190;BME280;50749;51.636;4.948;2024-03-23T03:30:59;101092.91;;;15.26;58.00
59190;BME280;50749;51.636;4.948;2024-03-23T03:33:28;101096.31;;;15.22;57.94
59190;BME280;50749;51.636;4.948;2024-03-23T03:35:55;101097.50;;;15.21;57.87
59190;BME280;50749;51.636;4.948;2024-03-23T03:38:21;101086.47;;;15.21;58.01
59190;BME280;50749;51.636;4.948;2024-03-23T03:40:47;101087.13;;;15.18;57.72
59190;BME280;50749;51.636;4.948;2024-03-23T03:43:13;101080.00;;;15.17;57.93
59190;BME280;50749;51.636;4.948;2024-03-23T03:45:40;101077.25;;;15.17;57.85
59190;BME280;50749;51.636;4.948;2024-03-23T03:48:07;101070.94;;;15.17;57.92
59190;BME280;50749;51.636;4.948;2024-03-23T03:50:36;101078.41;;;15.16;57.90
59190;BME280;50749;51.636;4.948;2024-03-23T03:53:02;101082.16;;;15.12;57.92
59190;BME280;50749;51.636;4.948;2024-03-23T03:55:28;101075.00;;;15.11;57.78
59190;BME280;50749;51.636;4.948;2024-03-23T03:57:54;101072.91;;;15.08;57.94
59190;BME280;50749;51.636;4.948;2024-03-23T04:00:21;101065.50;;;15.08;58.20
59190;BME280;50749;51.636;4.948;2024-03-23T04:02:47;101067.75;;;15.06;58.11
59190;BME280;50749;51.636;4.948;2024-03-23T04:05:13;101076.00;;;15.06;57.97
59190;BME280;50749;51.636;4.948;2024-03-23T04:07:42;101073.25;;;15.06;58.12
59190;BME280;50749;51.636;4.948;2024-03-23T04:10:09;101070.03;;;15.04;57.73
59190;BME280;50749;51.636;4.948;2024-03-23T04:12:35;101071.19;;;15.03;57.97
59190;BME280;50749;51.636;4.948;2024-03-23T04:15:01;101067.47;;;14.99;57.99
59190;BME280;50749;51.636;4.948;2024-03-23T04:17:28;101071.00;;;14.99;58.25
59190;BME280;50749;51.636;4.948;2024-03-23T04:19:55;101068.75;;;15.01;58.15
59190;BME280;50749;51.636;4.948;2024-03-23T04:22:22;101080.09;;;15.00;58.00
59190;BME280;50749;51.636;4.948;2024-03-23T04:24:51;101078.00;;;14.97;58.05
59190;BME280;50749;51.636;4.948;2024-03-23T04:27:17;101079.13;;;14.96;58.10
59190;BME280;50749;51.636;4.948;2024-03-23T04:29:46;101072.84;;;14.95;57.92
59190;BME280;50749;51.636;4.948;2024-03-23T04:32:13;101068.31;;;14.91;57.82
59190;BME280;50749;51.636;4.948;2024-03-23T04:34:40;101071.06;;;14.91;57.99
59190;BME280;50749;51.636;4.948;2024-03-23T04:37:08;101058.47;;;14.90;57.77
59190;BME280;50749;51.636;4.948;2024-03-23T04:39:35;101063.97;;;14.90;58.26
59190;BME280;50749;51.636;4.948;2024-03-23T04:42:05;101054.09;;;14.89;57.90
59190;BME280;50749;51.636;4.948;2024-03-23T04:44:31;101071.72;;;14.88;58.00
59190;BME280;50749;51.636;4.948;2024-03-23T04:46:58;101068.66;;;14.89;57.98
59190;BME280;50749;51.636;4.948;2024-03-23T04:49:24;101066.22;;;14.88;58.15
59190;BME280;50749;51.636;4.948;2024-03-23T04:51:50;101058.28;;;14.86;58.16
59190;BME280;50749;51.636;4.948;2024-03-23T04:54:17;101063.31;;;14.84;57.75
59190;BME280;50749;51.636;4.948;2024-03-23T04:56:43;101062.84;;;14.82;57.96
59190;BME280;50749;51.636;4.948;2024-03-23T04:59:12;101062.06;;;14.81;58.01
59190;BME280;50749;51.636;4.948;2024-03-23T05:01:38;101056.88;;;14.80;58.06
59190;BME280;50749;51.636;4.948;2024-03-23T05:04:04;101053.47;;;14.83;58.32
59190;BME280;50749;51.636;4.948;2024-03-23T05:06:31;101057.34;;;14.82;58.10
59190;BME280;50749;51.636;4.948;2024-03-23T05:08:57;101053.47;;;14.83;58.44
59190;BME280;50749;51.636;4.948;2024-03-23T05:11:23;101055.41;;;14.82;58.48
59190;BME280;50749;51.636;4.948;2024-03-23T05:13:49;101047.84;;;14.79;57.98
59190;BME280;50749;51.636;4.948;2024-03-23T05:16:18;101050.59;;;14.79;58.36
59190;BME280;50749;51.636;4.948;2024-03-23T05:18:45;101062.72;;;14.78;58.20
59190;BME280;50749;51.636;4.948;2024-03-23T05:21:11;101065.47;;;14.78;58.15
59190;BME280;50749;51.636;4.948;2024-03-23T05:23:37;101059.16;;;14.78;58.28
59190;BME280;50749;51.636;4.948;2024-03-23T05:26:03;101059.50;;;14.76;58.12
59190;BME280;50749;51.636;4.948;2024-03-23T05:28:30;101061.75;;;14.74;57.99
59190;BME280;50749;51.636;4.948;2024-03-23T05:30:56;101066.44;;;14.74;58.23
59190;BME280;50749;51.636;4.948;2024-03-23T05:33:25;101064.50;;;14.74;58.34
59190;BME280;50749;51.636;4.948;2024-03-23T05:35:56;101063.69;;;14.74;58.22
59190;BME280;50749;51.636;4.948;2024-03-23T05:38:23;101058.53;;;14.72;58.11
59190;BME280;50749;51.636;4.948;2024-03-23T05:40:53;101053.03;;;14.72;58.31
59190;BME280;50749;51.636;4.948;2024-03-23T05:43:19;101044.78;;;14.72;58.51
59190;BME280;50749;51.636;4.948;2024-03-23T05:45:45;101056.25;;;14.74;58.49
59190;BME280;50749;51.636;4.948;2024-03-23T05:48:12;101059.00;;;14.74;57.92
59190;BME280;50749;51.636;4.948;2024-03-23T05:50:41;101058.00;;;14.79;58.15
59190;BME280;50749;51.636;4.948;2024-03-23T05:53:07;101055.91;;;14.84;58.26
59190;BME280;50749;51.636;4.948;2024-03-23T05:55:33;101063.28;;;14.93;58.06
59190;BME280;50749;51.636;4.948;2024-03-23T05:57:59;101056.66;;;14.94;58.09
59190;BME280;50749;51.636;4.948;2024-03-23T06:00:26;101061.31;;;15.02;58.22
59190;BME280;50749;51.636;4.948;2024-03-23T06:02:52;101068.25;;;14.99;57.61
59190;BME280;50749;51.636;4.948;2024-03-23T06:05:18;101065.03;;;14.97;57.73
59190;BME280;50749;51.636;4.948;2024-03-23T06:07:47;101064.56;;;14.95;58.05
59190;BME280;50749;51.636;4.948;2024-03-23T06:10:13;101065.09;;;14.89;58.04
59190;BME280;50749;51.636;4.948;2024-03-23T06:12:39;101068.13;;;14.96;58.30
59190;BME280;50749;51.636;4.948;2024-03-23T06:15:07;101067.59;;;15.02;58.53
59190;BME280;50749;51.636;4.948;2024-03-23T06:17:34;101069.56;;;15.02;58.33
59190;BME280;50749;51.636;4.948;2024-03-23T06:20:00;101070.31;;;15.11;58.68
59190;BME280;50749;51.636;4.948;2024-03-23T06:22:26;101067.53;;;15.20;58.63
59190;BME280;50749;51.636;4.948;2024-03-23T06:24:55;101065.38;;;15.26;58.85
59190;BME280;50749;51.636;4.948;2024-03-23T06:27:21;101068.88;;;15.35;58.92
59190;BME280;50749;51.636;4.948;2024-03-23T06:29:47;101073.38;;;15.39;59.02
59190;BME280;50749;51.636;4.948;2024-03-23T06:32:14;101070.91;;;15.47;59.27
59190;BME280;50749;51.636;4.948;2024-03-23T06:34:41;101075.88;;;15.53;59.34
59190;BME280;50749;51.636;4.948;2024-03-23T06:37:07;101076.28;;;15.64;60.34
59190;BME280;50749;51.636;4.948;2024-03-23T06:39:33;101082.03;;;15.71;59.63
59190;BME280;50749;51.636;4.948;2024-03-23T06:42:03;101076.84;;;15.78;59.72
59190;BME280;50749;51.636;4.948;2024-03-23T06:44:29;101076.16;;;15.82;59.98
59190;BME280;50749;51.636;4.948;2024-03-23T06:46:56;101070.75;;;15.85;60.18
59190;BME280;50749;51.636;4.948;2024-03-23T06:49:22;101067.81;;;15.90;59.96
59190;BME280;50749;51.636;4.948;2024-03-23T06:51:49;101073.47;;;15.94;59.86
59190;BME280;50749;51.636;4.948;2024-03-23T06:54:16;101071.97;;;15.96;60.09
59190;BME280;50749;51.636;4.948;2024-03-23T06:56:44;101073.72;;;16.01;60.05
59190;BME280;50749;51.636;4.948;2024-03-23T06:59:12;101079.34;;;16.05;59.99
59190;BME280;50749;51.636;4.948;2024-03-23T07:01:39;101081.91;;;16.10;59.96
59190;BME280;50749;51.636;4.948;2024-03-23T07:04:05;101082.34;;;16.12;59.87
59190;BME280;50749;51.636;4.948;2024-03-23T07:06:31;101084.09;;;16.16;60.26
59190;BME280;50749;51.636;4.948;2024-03-23T07:08:57;101084.84;;;16.26;60.44
59190;BME280;50749;51.636;4.948;2024-03-23T07:11:24;101084.97;;;16.29;60.01
59190;BME280;50749;51.636;4.948;2024-03-23T07:13:50;101084.63;;;16.31;59.37
59190;BME280;50749;51.636;4.948;2024-03-23T07:16:19;101079.69;;;16.37;59.18
59190;BME280;50749;51.636;4.948;2024-03-23T07:18:46;101079.00;;;16.40;59.36
59190;BME280;50749;51.636;4.948;2024-03-23T07:21:12;101079.91;;;16.44;59.36
59190;BME280;50749;51.636;4.948;2024-03-23T07:23:41;101080.88;;;16.48;59.08
59190;BME280;50749;51.636;4.948;2024-03-23T07:26:08;101084.53;;;16.52;59.15
59190;BME280;50749;51.636;4.948;2024-03-23T07:28:34;101087.75;;;16.54;59.10
59190;BME280;50749;51.636;4.948;2024-03-23T07:31:05;101082.72;;;16.56;59.07
59190;BME280;50749;51.636;4.948;2024-03-23T07:33:35;101081.22;;;16.59;59.00
59190;BME280;50749;51.636;4.948;2024-03-23T07:36:02;101086.84;;;16.62;58.92
59190;BME280;50749;51.636;4.948;2024-03-23T07:38:28;101076.75;;;16.66;58.94
59190;BME280;50749;51.636;4.948;2024-03-23T07:41:05;101081.59;;;16.69;59.24
59190;BME280;50749;51.636;4.948;2024-03-23T07:43:31;101081.69;;;16.73;58.95
59190;BME280;50749;51.636;4.948;2024-03-23T07:45:58;101069.97;;;16.76;59.08
59190;BME280;50749;51.636;4.948;2024-03-23T07:48:24;101074.00;;;16.79;59.26
59190;BME280;50749;51.636;4.948;2024-03-23T07:51:02;101071.69;;;16.81;59.46
59190;BME280;50749;51.636;4.948;2024-03-23T07:53:28;101065.47;;;16.84;58.97
59190;BME280;50749;51.636;4.948;2024-03-23T07:55:55;101067.94;;;16.85;59.05
59190;BME280;50749;51.636;4.948;2024-03-23T07:58:21;101063.19;;;16.86;59.30
59190;BME280;50749;51.636;4.948;2024-03-23T08:00:48;101068.03;;;16.89;59.26
59190;BME280;50749;51.636;4.948;2024-03-23T08:03:14;101062.16;;;16.90;59.28
59190;BME280;50749;51.636;4.948;2024-03-23T08:05:40;101061.81;;;16.92;59.14
59190;BME280;50749;51.636;4.948;2024-03-23T08:08:09;101066.66;;;16.95;59.07
59190;BME280;50749;51.636;4.948;2024-03-23T08:10:35;101059.19;;;16.96;59.29
59190;BME280;50749;51.636;4.948;2024-03-23T08:13:01;101063.56;;;16.97;59.48
59190;BME280;50749;51.636;4.948;2024-03-23T08:15:30;101059.28;;;16.99;59.43
59190;BME280;50749;51.636;4.948;2024-03-23T08:17:56;101059.28;;;16.99;59.30
59190;BME280;50749;51.636;4.948;2024-03-23T08:20:22;101055.38;;;17.00;59.00
59190;BME280;50749;51.636;4.948;2024-03-23T08:22:48;101055.38;;;17.00;59.21
59190;BME280;50749;51.636;4.948;2024-03-23T08:25:17;101056.53;;;16.99;58.81
59190;BME280;50749;51.636;4.948;2024-03-23T08:27:44;101056.19;;;17.01;59.13
59190;BME280;50749;51.636;4.948;2024-03-23T08:30:11;101068.50;;;17.03;58.68
59190;BME280;50749;51.636;4.948;2024-03-23T08:32:37;101059.88;;;17.05;58.27
59190;BME280;50749;51.636;4.948;2024-03-23T08:35:04;101069.66;;;17.02;58.31
59190;BME280;50749;51.636;4.948;2024-03-23T08:37:31;101062.97;;;17.03;58.39
59190;BME280;50749;51.636;4.948;2024-03-23T08:39:57;101074.03;;;17.03;58.88
59190;BME280;50749;51.636;4.948;2024-03-23T08:42:25;101067.00;;;17.06;58.75
59190;BME280;50749;51.636;4.948;2024-03-23T08:44:52;101060.66;;;17.05;58.51
59190;BME280;50749;51.636;4.948;2024-03-23T08:47:19;101081.16;;;17.04;58.05
59190;BME280;50749;51.636;4.948;2024-03-23T08:49:46;101074.72;;;17.00;56.14
59190;BME280;50749;51.636;4.948;2024-03-23T08:52:12;101068.75;;;16.98;57.66
59190;BME280;50749;51.636;4.948;2024-03-23T08:54:38;101068.25;;;16.96;58.63
59190;BME280;50749;51.636;4.948;2024-03-23T08:57:04;101062.03;;;16.99;59.25
59190;BME280;50749;51.636;4.948;2024-03-23T08:59:33;101065.41;;;17.05;59.40
59190;BME280;50749;51.636;4.948;2024-03-23T09:01:59;101063.09;;;17.07;58.78
59190;BME280;50749;51.636;4.948;2024-03-23T09:04:26;101055.38;;;17.13;58.57
59190;BME280;50749;51.636;4.948;2024-03-23T09:06:52;101062.97;;;17.16;59.52
59190;BME280;50749;51.636;4.948;2024-03-23T09:09:18;101057.53;;;17.19;60.04
59190;BME280;50749;51.636;4.948;2024-03-23T09:11:45;101055.13;;;17.18;60.19
59190;BME280;50749;51.636;4.948;2024-03-23T09:14:11;101059.63;;;17.22;59.72
59190;BME280;50749;51.636;4.948;2024-03-23T09:16:40;101059.16;;;17.20;59.83
59190;BME280;50749;51.636;4.948;2024-03-23T09:19:06;101057.53;;;17.19;59.73
59190;BME280;50749;51.636;4.948;2024-03-23T09:21:32;101061.47;;;17.18;59.81
59190;BME280;50749;51.636;4.948;2024-03-23T09:23:59;101061.94;;;17.20;59.54
59190;BME280;50749;51.636;4.948;2024-03-23T09:26:25;101062.72;;;17.21;59.81
59190;BME280;50749;51.636;4.948;2024-03-23T09:28:51;101059.28;;;17.24;60.13
59190;BME280;50749;51.636;4.948;2024-03-23T09:31:17;101061.25;;;17.23;60.24
59190;BME280;50749;51.636;4.948;2024-03-23T09:33:46;101064.44;;;17.25;60.67
59190;BME280;50749;51.636;4.948;2024-03-23T09:36:12;101060.41;;;17.23;59.11
59190;BME280;50749;51.636;4.948;2024-03-23T09:38:38;101068.69;;;17.23;57.93
59190;BME280;50749;51.636;4.948;2024-03-23T09:41:07;101063.16;;;17.23;58.49
59190;BME280;50749;51.636;4.948;2024-03-23T09:43:34;101061.25;;;17.23;58.97
59190;BME280;50749;51.636;4.948;2024-03-23T09:46:01;101050.97;;;17.24;59.52
59190;BME280;50749;51.636;4.948;2024-03-23T09:48:28;101045.91;;;17.26;59.54
59190;BME280;50749;51.636;4.948;2024-03-23T09:50:57;101053.41;;;17.25;59.60
59190;BME280;50749;51.636;4.948;2024-03-23T09:53:23;101057.31;;;17.24;59.62
59190;BME280;50749;51.636;4.948;2024-03-23T09:55:49;101078.59;;;17.24;59.78
59190;BME280;50749;51.636;4.948;2024-03-23T09:58:17;101069.19;;;17.25;60.50
59190;BME280;50749;51.636;4.948;2024-03-23T10:00:43;101081.38;;;17.24;62.19
59190;BME280;50749;51.636;4.948;2024-03-23T10:03:10;101078.16;;;17.22;62.56
59190;BME280;50749;51.636;4.948;2024-03-23T10:05:37;101075.41;;;17.22;61.19
59190;BME280;50749;51.636;4.948;2024-03-23T10:08:17;101071.47;;;17.23;61.89
59190;BME280;50749;51.636;4.948;2024-03-23T10:10:44;101072.28;;;17.23;62.13
59190;BME280;50749;51.636;4.948;2024-03-23T10:13:11;101062.03;;;17.24;62.30
59190;BME280;50749;51.636;4.948;2024-03-23T10:15:54;101067.56;;;17.24;62.39
59190;BME280;50749;51.636;4.948;2024-03-23T10:18:21;101059.28;;;17.24;62.16
59190;BME280;50749;51.636;4.948;2024-03-23T10:20:51;101052.59;;;17.25;61.94
59190;BME280;50749;51.636;4.948;2024-03-23T10:23:20;101042.34;;;17.25;62.23
59190;BME280;50749;51.636;4.948;2024-03-23T10:25:48;101046.00;;;17.30;61.83
59190;BME280;50749;51.636;4.948;2024-03-23T10:28:14;101046.84;;;17.30;61.98
59190;BME280;50749;51.636;4.948;2024-03-23T10:30:40;101037.38;;;17.31;62.01
59190;BME280;50749;51.636;4.948;2024-03-23T10:33:08;101057.53;;;17.32;61.79
59190;BME280;50749;51.636;4.948;2024-03-23T10:35:34;101067.78;;;17.31;61.96
59190;BME280;50749;51.636;4.948;2024-03-23T10:38:02;101063.63;;;17.37;60.97
59190;BME280;50749;51.636;4.948;2024-03-23T10:40:34;101082.97;;;17.37;59.33
59190;BME280;50749;51.636;4.948;2024-03-23T10:43:03;101088.50;;;17.37;60.20
59190;BME280;50749;51.636;4.948;2024-03-23T10:45:29;101063.16;;;17.35;60.65
59190;BME280;50749;51.636;4.948;2024-03-23T10:47:55;101061.19;;;17.36;60.43
59190;BME280;50749;51.636;4.948;2024-03-23T10:50:22;101056.13;;;17.38;60.91
59190;BME280;50749;51.636;4.948;2024-03-23T10:52:49;101056.13;;;17.38;60.23
59190;BME280;50749;51.636;4.948;2024-03-23T10:55:17;101057.28;;;17.37;60.75
59190;BME280;50749;51.636;4.948;2024-03-23T10:57:50;101049.00;;;17.37;61.12
59190;BME280;50749;51.636;4.948;2024-03-23T11:00:17;101040.47;;;17.42;61.49
59190;BME280;50749;51.636;4.948;2024-03-23T11:02:44;101044.72;;;17.39;61.78
59190;BME280;50749;51.636;4.948;2024-03-23T11:05:28;101029.31;;;17.38;62.79
59190;BME280;50749;51.636;4.948;2024-03-23T11:07:55;101038.75;;;17.37;63.48
59190;BME280;50749;51.636;4.948;2024-03-23T11:10:25;101032.44;;;17.37;63.40
59190;BME280;50749;51.636;4.948;2024-03-23T11:12:54;101039.88;;;17.36;63.42
59190;BME280;50749;51.636;4.948;2024-03-23T11:15:20;101038.31;;;17.35;62.66
59190;BME280;50749;51.636;4.948;2024-03-23T11:18:02;101042.66;;;17.36;62.05
59190;BME280;50749;51.636;4.948;2024-03-23T11:20:31;101044.97;;;17.34;62.61
59190;BME280;50749;51.636;4.948;2024-03-23T11:22:59;101037.00;;;17.45;62.34
59190;BME280;50749;51.636;4.948;2024-03-23T11:25:26;101035.41;;;17.44;61.90
59190;BME280;50749;51.636;4.948;2024-03-23T11:27:56;101038.50;;;17.42;62.97
59190;BME280;50749;51.636;4.948;2024-03-23T11:30:24;101028.94;;;17.40;61.40
59190;BME280;50749;51.636;4.948;2024-03-23T11:32:52;101031.25;;;17.38;62.12
59190;BME280;50749;51.636;4.948;2024-03-23T11:35:26;101022.16;;;17.37;62.56
59190;BME280;50749;51.636;4.948;2024-03-23T11:38:09;101023.31;;;17.36;63.35
59190;BME280;50749;51.636;4.948;2024-03-23T11:40:36;101021.72;;;17.35;63.31
59190;BME280;50749;51.636;4.948;2024-03-23T11:43:07;101018.97;;;17.35;63.18
59190;BME280;50749;51.636;4.948;2024-03-23T11:45:34;101017.34;;;17.34;62.77
59190;BME280;50749;51.636;4.948;2024-03-23T11:48:02;101017.34;;;17.34;63.01
59190;BME280;50749;51.636;4.948;2024-03-23T11:50:28;101017.34;;;17.34;63.33
59190;BME280;50749;51.636;4.948;2024-03-23T11:53:06;101006.28;;;17.34;63.33
59190;BME280;50749;51.636;4.948;2024-03-23T11:55:39;101020.09;;;17.34;63.63
59190;BME280;50749;51.636;4.948;2024-03-23T11:58:08;101009.84;;;17.35;63.03
59190;BME280;50749;51.636;4.948;2024-03-23T12:00:34;101009.03;;;17.34;63.29
59190;BME280;50749;51.636;4.948;2024-03-23T12:03:01;101009.84;;;17.35;62.83
59190;BME280;50749;51.636;4.948;2024-03-23T12:05:27;101015.38;;;17.35;62.53
59190;BME280;50749;51.636;4.948;2024-03-23T12:07:53;101013.78;;;17.34;62.81
59190;BME280;50749;51.636;4.948;2024-03-23T12:10:20;101012.97;;;17.33;62.69
59190;BME280;50749;51.636;4.948;2024-03-23T12:12:46;101011.00;;;17.34;62.51
59190;BME280;50749;51.636;4.948;2024-03-23T12:15:27;101000.31;;;17.32;62.78
59190;BME280;50749;51.636;4.948;2024-03-23T12:18:06;101007.81;;;17.32;61.99
59190;BME280;50749;51.636;4.948;2024-03-23T12:20:32;101011.34;;;17.32;62.24
59190;BME280;50749;51.636;4.948;2024-03-23T12:23:05;101012.50;;;17.31;62.33
59190;BME280;50749;51.636;4.948;2024-03-23T12:25:32;101013.69;;;17.30;62.62
59190;BME280;50749;51.636;4.948;2024-03-23T12:27:59;101023.09;;;17.29;62.44
59190;BME280;50749;51.636;4.948;2024-03-23T12:30:28;101017.56;;;17.29;62.13
59190;BME280;50749;51.636;4.948;2024-03-23T12:32:54;101012.06;;;17.29;62.27
59190;BME280;50749;51.636;4.948;2024-03-23T12:35:20;101016.78;;;17.29;62.81
59190;BME280;50749;51.636;4.948;2024-03-23T12:37:47;101013.19;;;17.28;62.57
59190;BME280;50749;51.636;4.948;2024-03-23T12:40:13;101011.59;;;17.27;63.02
59190;BME280;50749;51.636;4.948;2024-03-23T12:42:39;101012.41;;;17.27;63.00
59190;BME280;50749;51.636;4.948;2024-03-23T12:45:07;101011.59;;;17.27;62.28
59190;BME280;50749;51.636;4.948;2024-03-23T12:47:36;101006.09;;;17.27;62.31
59190;BME280;50749;51.636;4.948;2024-03-23T12:50:02;101000.56;;;17.27;62.53
59190;BME280;50749;51.636;4.948;2024-03-23T12:52:29;101010.81;;;17.26;63.01
59190;BME280;50749;51.636;4.948;2024-03-23T12:54:56;100988.72;;;17.26;62.59
59190;BME280;50749;51.636;4.948;2024-03-23T12:57:23;101006.09;;;17.27;62.78
59190;BME280;50749;51.636;4.948;2024-03-23T12:59:50;100995.03;;;17.27;62.38
59190;BME280;50749;51.636;4.948;2024-03-23T13:02:18;101007.66;;;17.28;63.38
59190;BME280;50749;51.636;4.948;2024-03-23T13:04:49;100997.78;;;17.27;61.88
59190;BME280;50749;51.636;4.948;2024-03-23T13:07:16;101006.53;;;17.29;63.22
59190;BME280;50749;51.636;4.948;2024-03-23T13:09:42;100992.72;;;17.29;63.15
59190;BME280;50749;51.636;4.948;2024-03-23T13:12:09;100995.47;;;17.29;62.99
59190;BME280;50749;51.636;4.948;2024-03-23T13:14:35;100986.84;;;17.31;63.45
59190;BME280;50749;51.636;4.948;2024-03-23T13:17:02;100987.19;;;17.29;63.56
59190;BME280;50749;51.636;4.948;2024-03-23T13:19:28;100970.59;;;17.29;63.06
59190;BME280;50749;51.636;4.948;2024-03-23T13:21:57;100968.28;;;17.31;63.15
59190;BME280;50749;51.636;4.948;2024-03-23T13:24:23;100968.28;;;17.31;63.28
59190;BME280;50749;51.636;4.948;2024-03-23T13:26:50;100969.13;;;17.32;63.79
59190;BME280;50749;51.636;4.948;2024-03-23T13:29:17;100957.25;;;17.31;62.16
59190;BME280;50749;51.636;4.948;2024-03-23T13:31:44;100956.09;;;17.32;61.58
59190;BME280;50749;51.636;4.948;2024-03-23T13:34:10;100954.94;;;17.33;61.53
59190;BME280;50749;51.636;4.948;2024-03-23T13:36:37;100936.06;;;17.35;61.32
59190;BME280;50749;51.636;4.948;2024-03-23T13:39:05;100938.38;;;17.33;57.55
59190;BME280;50749;51.636;4.948;2024-03-23T13:41:32;100947.56;;;17.37;58.74
59190;BME280;50749;51.636;4.948;2024-03-23T13:43:58;100952.63;;;17.35;59.36